createdAt,value
2022-08-09T00:00:12.100Z,67.04
2022-08-09T00:01:10.693Z,66.98
2022-08-09T00:02:09.018Z,66.99
2022-08-09T00:04:00.621Z,67.05
2022-08-09T00:04:15.340Z,67.17
2022-08-09T00:06:18.917Z,67.22
2022-08-09T00:06:18.957Z,67.15
2022-08-09T00:07:10.791Z,67.35
2022-08-09T00:08:10.085Z,67.35
2022-08-09T00:09:08.698Z,67.30
2022-08-09T00:10:08.837Z,67.55
2022-08-09T00:11:24.816Z,67.58
2022-08-09T00:12:15.422Z,67.56
2022-08-09T00:13:17.512Z,67.73
2022-08-09T00:14:10.375Z,67.72
2022-08-09T00:15:14.570Z,68.00
2022-08-09T00:16:09.606Z,68.03
2022-08-09T00:17:09.725Z,68.10
2022-08-09T00:18:12.499Z,68.15
2022-08-09T00:19:10.388Z,68.16
2022-08-09T00:20:12.174Z,68.17
2022-08-09T00:21:10.215Z,68.32
2022-08-09T00:22:10.345Z,68.37
2022-08-09T00:23:57.632Z,68.39
2022-08-09T00:24:11.705Z,68.50
2022-08-09T00:25:12.821Z,68.58
2022-08-09T00:26:11.356Z,68.66
2022-08-09T00:27:10.988Z,68.80
2022-08-09T00:28:11.126Z,68.76
2022-08-09T00:29:12.592Z,68.66
2022-08-09T00:30:23.709Z,68.75
2022-08-09T00:31:57.622Z,68.97
2022-08-09T00:32:12.847Z,69.05
2022-08-09T00:33:11.753Z,69.06
2022-08-09T00:34:12.074Z,69.05
2022-08-09T00:35:12.012Z,69.08
2022-08-09T00:36:12.164Z,69.11
2022-08-09T00:37:12.309Z,69.04
2022-08-09T00:38:12.412Z,69.37
2022-08-09T00:40:01.971Z,69.43
2022-08-09T00:40:17.260Z,69.36
2022-08-09T00:44:08.233Z,69.37
2022-08-09T00:44:14.505Z,69.53
2022-08-09T00:44:14.998Z,69.43
2022-08-09T00:44:27.508Z,69.64
2022-08-09T00:45:15.775Z,69.72
2022-08-09T00:46:14.521Z,69.72
2022-08-09T00:47:15.366Z,69.73
2022-08-09T00:48:15.453Z,69.81
2022-08-09T00:49:14.760Z,69.74
2022-08-09T00:50:14.492Z,69.88
2022-08-09T00:51:14.002Z,70.03
2022-08-09T00:52:15.996Z,69.90
2022-08-09T00:53:14.729Z,69.82
2022-08-09T00:54:14.328Z,69.93
2022-08-09T00:55:32.887Z,69.98
2022-08-09T00:56:15.612Z,69.99
2022-08-09T00:57:24.816Z,70.00
2022-08-09T00:58:25.421Z,70.02
2022-08-09T00:59:20.211Z,70.15
2022-08-09T01:00:22.011Z,70.19
2022-08-09T01:01:16.434Z,70.32
2022-08-09T01:02:15.318Z,70.20
2022-08-09T01:03:15.539Z,70.20
2022-08-09T01:04:15.636Z,70.15
2022-08-09T01:05:21.982Z,70.07
2022-08-09T01:06:18.381Z,70.21
2022-08-09T01:07:15.984Z,70.22
2022-08-09T01:08:16.187Z,70.49
2022-08-09T01:09:16.377Z,70.35
2022-08-09T01:10:16.505Z,70.46
2022-08-09T01:11:16.515Z,70.53
2022-08-09T01:12:16.599Z,70.41
2022-08-09T01:13:17.022Z,70.46
2022-08-09T01:14:16.956Z,70.59
2022-08-09T01:15:17.653Z,70.61
2022-08-09T01:16:17.126Z,70.59
2022-08-09T01:17:17.911Z,70.69
2022-08-09T01:18:17.366Z,70.76
2022-08-09T01:19:40.233Z,70.94
2022-08-09T01:20:18.608Z,71.10
2022-08-09T01:21:17.725Z,70.94
2022-08-09T01:22:17.975Z,70.98
2022-08-09T01:24:02.324Z,70.94
2022-08-09T01:24:19.122Z,71.12
2022-08-09T01:25:19.041Z,71.16
2022-08-09T01:26:18.387Z,71.16
2022-08-09T01:27:18.653Z,71.24
2022-08-09T01:28:18.584Z,71.33
2022-08-09T01:29:18.733Z,71.52
2022-08-09T01:30:35.408Z,71.50
2022-08-09T01:32:29.101Z,71.55
2022-08-09T01:32:30.994Z,71.74
2022-08-09T01:33:20.219Z,71.70
2022-08-09T01:34:19.342Z,71.67
2022-08-09T01:35:38.047Z,71.87
2022-08-09T01:36:20.562Z,71.90
2022-08-09T01:37:42.818Z,72.10
2022-08-09T01:38:20.851Z,72.00
2022-08-09T01:39:19.970Z,72.10
2022-08-09T01:40:23.338Z,72.11
2022-08-09T01:41:25.991Z,72.13
2022-08-09T01:42:21.253Z,72.27
2022-08-09T01:43:20.391Z,72.27
2022-08-09T01:44:20.511Z,72.33
2022-08-09T01:45:20.650Z,72.19
2022-08-09T01:46:25.068Z,72.11
2022-08-09T01:47:21.909Z,72.11
2022-08-09T01:48:29.502Z,72.19
2022-08-09T01:49:24.333Z,72.28
2022-08-09T01:50:21.289Z,72.31
2022-08-09T01:51:23.003Z,72.42
2022-08-09T01:52:21.500Z,72.49
2022-08-09T01:53:21.679Z,72.53
2022-08-09T01:54:21.728Z,72.43
2022-08-09T01:55:21.877Z,72.45
2022-08-09T01:56:22.052Z,72.43
2022-08-09T01:57:22.077Z,72.54
2022-08-09T01:58:23.938Z,72.53
2022-08-09T01:59:23.029Z,72.41
2022-08-09T02:00:35.501Z,72.61
2022-08-09T02:01:30.443Z,72.50
2022-08-09T02:02:23.773Z,72.56
2022-08-09T02:03:24.015Z,72.68
2022-08-09T02:04:22.945Z,72.83
2022-08-09T02:05:38.170Z,72.79
2022-08-09T02:06:24.193Z,72.75
2022-08-09T02:08:38.531Z,72.89
2022-08-09T02:08:41.186Z,73.10
2022-08-09T02:09:24.557Z,73.12
2022-08-09T02:10:29.919Z,73.19
2022-08-09T02:11:24.762Z,73.19
2022-08-09T02:12:24.895Z,73.36
2022-08-09T02:13:26.076Z,73.39
2022-08-09T02:14:26.642Z,73.45
2022-08-09T02:15:24.434Z,73.42
2022-08-09T02:16:33.803Z,73.40
2022-08-09T02:18:00.625Z,73.59
2022-08-09T02:18:25.605Z,73.47
2022-08-09T02:19:24.729Z,73.47
2022-08-09T02:20:32.502Z,73.49
2022-08-09T02:21:25.973Z,73.50
2022-08-09T02:22:27.387Z,73.46
2022-08-09T02:23:26.202Z,73.64
2022-08-09T02:24:26.879Z,73.60
2022-08-09T02:25:25.593Z,73.54
2022-08-09T02:26:27.319Z,73.66
2022-08-09T02:27:42.997Z,73.70
2022-08-09T02:28:26.821Z,73.87
2022-08-09T02:29:25.981Z,74.01
2022-08-09T02:30:26.501Z,73.95
2022-08-09T02:31:26.201Z,73.93
2022-08-09T02:32:26.488Z,74.13
2022-08-09T02:33:37.998Z,74.02
2022-08-09T02:34:41.719Z,74.13
2022-08-09T02:36:01.604Z,74.06
2022-08-09T02:36:27.839Z,74.06
2022-08-09T02:37:31.610Z,74.06
2022-08-09T02:38:28.877Z,74.03
2022-08-09T02:39:33.372Z,74.17
2022-08-09T02:40:30.446Z,74.16
2022-08-09T02:41:27.481Z,74.24
2022-08-09T02:42:27.677Z,74.04
2022-08-09T02:43:28.697Z,74.13
2022-08-09T02:44:30.408Z,74.22
2022-08-09T02:45:28.816Z,74.27
2022-08-09T02:46:28.491Z,74.22
2022-08-09T02:47:28.178Z,74.21
2022-08-09T02:48:31.020Z,74.24
2022-08-09T02:49:38.932Z,74.36
2022-08-09T02:50:29.569Z,74.48
2022-08-09T02:51:28.637Z,74.59
2022-08-09T02:52:29.805Z,74.50
2022-08-09T02:53:30.135Z,74.51
2022-08-09T02:54:29.015Z,74.41
2022-08-09T02:55:46.642Z,74.44
2022-08-09T02:56:30.249Z,74.40
2022-08-09T02:57:29.391Z,74.56
2022-08-09T02:58:35.517Z,74.53
2022-08-09T02:59:36.274Z,74.78
2022-08-09T03:00:30.789Z,74.76
2022-08-09T03:01:58.675Z,74.71
2022-08-09T03:02:31.368Z,74.76
2022-08-09T03:04:12.612Z,74.88
2022-08-09T03:04:31.461Z,75.05
2022-08-09T03:05:34.187Z,74.89
2022-08-09T03:06:30.488Z,74.76
2022-08-09T03:07:30.601Z,74.68
2022-08-09T03:08:30.741Z,74.82
2022-08-09T03:09:33.535Z,74.80
2022-08-09T03:10:31.054Z,75.11
2022-08-09T03:12:05.874Z,75.15
2022-08-09T03:12:32.351Z,75.18
2022-08-09T03:13:43.400Z,75.15
2022-08-09T03:14:32.478Z,75.28
2022-08-09T03:16:04.562Z,75.40
2022-08-09T03:16:32.732Z,75.47
2022-08-09T03:17:31.862Z,75.49
2022-08-09T03:18:32.018Z,75.56
2022-08-09T03:19:58.790Z,75.62
2022-08-09T03:20:33.293Z,75.68
2022-08-09T03:21:39.473Z,75.70
2022-08-09T03:22:33.652Z,75.74
2022-08-09T03:23:33.654Z,75.59
2022-08-09T03:24:51.896Z,75.71
2022-08-09T03:25:58.200Z,75.77
2022-08-09T03:26:34.000Z,75.75
2022-08-09T03:27:44.619Z,75.63
2022-08-09T03:28:34.229Z,75.66
2022-08-09T03:29:35.585Z,75.64
2022-08-09T03:30:36.757Z,75.67
2022-08-09T03:31:33.620Z,75.66
2022-08-09T03:32:36.937Z,75.84
2022-08-09T03:33:53.519Z,75.81
2022-08-09T03:34:35.147Z,76.06
2022-08-09T03:36:11.522Z,76.03
2022-08-09T03:36:35.478Z,76.02
2022-08-09T03:37:55.605Z,76.04
2022-08-09T03:38:35.546Z,76.17
2022-08-09T03:39:38.066Z,76.25
2022-08-09T03:40:34.788Z,76.22
2022-08-09T03:41:44.755Z,76.27
2022-08-09T03:42:35.987Z,76.10
2022-08-09T03:43:36.465Z,76.32
2022-08-09T03:44:35.265Z,76.24
2022-08-09T03:46:05.422Z,76.42
2022-08-09T03:46:36.789Z,76.36
2022-08-09T03:47:39.817Z,76.35
2022-08-09T03:48:36.129Z,76.41
2022-08-09T03:49:36.033Z,76.52
2022-08-09T03:50:36.284Z,76.42
2022-08-09T03:51:56.443Z,76.35
2022-08-09T03:52:37.210Z,76.48
2022-08-09T03:53:37.090Z,76.62
2022-08-09T03:54:38.459Z,76.64
2022-08-09T03:55:40.939Z,76.66
2022-08-09T03:56:37.825Z,76.67
2022-08-09T03:57:44.782Z,76.71
2022-08-09T03:58:37.906Z,76.75
2022-08-09T03:59:52.885Z,76.65
2022-08-09T04:00:38.234Z,76.72
2022-08-09T04:01:37.289Z,76.84
2022-08-09T04:02:37.549Z,76.94
2022-08-09T04:03:46.112Z,76.96
2022-08-09T04:04:39.067Z,77.04
2022-08-09T04:05:40.536Z,77.15
2022-08-09T04:06:37.904Z,77.24
2022-08-09T04:07:52.537Z,77.27
2022-08-09T04:08:40.122Z,77.44
2022-08-09T04:09:41.750Z,77.49
2022-08-09T04:10:39.425Z,77.56
2022-08-09T04:11:38.574Z,77.54
2022-08-09T04:12:38.661Z,77.46
2022-08-09T04:14:37.179Z,77.39
2022-08-09T04:14:53.861Z,77.37
2022-08-09T04:16:17.269Z,77.37
2022-08-09T04:16:40.199Z,77.35
2022-08-09T04:17:39.521Z,77.27
2022-08-09T04:18:39.464Z,77.39
2022-08-09T04:19:50.768Z,77.51
2022-08-09T04:20:40.651Z,77.43
2022-08-09T04:21:40.224Z,77.39
2022-08-09T04:22:41.102Z,77.25
2022-08-09T04:23:40.110Z,77.27
2022-08-09T04:24:41.201Z,77.46
2022-08-09T04:25:40.271Z,77.37
2022-08-09T04:26:40.434Z,77.29
2022-08-09T04:27:40.557Z,77.42
2022-08-09T04:28:42.315Z,77.41
2022-08-09T04:29:49.517Z,77.58
2022-08-09T04:30:44.855Z,77.74
2022-08-09T04:31:47.250Z,77.66
2022-08-09T04:32:46.645Z,77.66
2022-08-09T04:33:53.082Z,77.76
2022-08-09T04:34:47.705Z,77.70
2022-08-09T04:35:42.532Z,77.75
2022-08-09T04:36:50.226Z,77.68
2022-08-09T04:37:46.231Z,77.80
2022-08-09T04:38:41.868Z,77.75
2022-08-09T04:39:42.151Z,77.99
2022-08-09T04:40:43.154Z,77.97
2022-08-09T04:41:43.733Z,78.03
2022-08-09T04:42:42.434Z,78.03
2022-08-09T04:43:46.541Z,77.93
2022-08-09T04:44:49.332Z,77.90
2022-08-09T04:45:53.968Z,77.90
2022-08-09T04:46:58.734Z,77.95
2022-08-09T04:47:59.189Z,78.05
2022-08-09T04:48:50.505Z,78.28
2022-08-09T04:49:55.020Z,78.42
2022-08-09T04:50:44.503Z,78.54
2022-08-09T04:51:43.521Z,78.43
2022-08-09T04:52:43.661Z,78.24
2022-08-09T04:53:43.757Z,78.40
2022-08-09T04:54:43.935Z,78.57
2022-08-09T04:55:58.857Z,78.43
2022-08-09T04:56:45.188Z,78.35
2022-08-09T04:57:54.346Z,78.28
2022-08-09T04:58:45.413Z,78.29
2022-08-09T04:59:44.546Z,78.24
2022-08-09T05:00:45.700Z,78.43
2022-08-09T05:01:44.789Z,78.32
2022-08-09T05:02:48.759Z,78.55
2022-08-09T05:03:46.109Z,78.57
2022-08-09T05:04:45.122Z,78.53
2022-08-09T05:05:51.988Z,78.44
2022-08-09T05:06:46.461Z,78.50
2022-08-09T05:07:46.429Z,78.49
2022-08-09T05:08:48.044Z,78.40
2022-08-09T05:09:49.906Z,78.45
2022-08-09T05:10:45.830Z,78.37
2022-08-09T05:11:45.948Z,78.39
2022-08-09T05:12:46.150Z,78.41
2022-08-09T05:13:46.198Z,78.42
2022-08-09T05:14:46.320Z,78.46
2022-08-09T05:15:47.967Z,78.47
2022-08-09T05:16:58.919Z,78.53
2022-08-09T05:18:42.604Z,78.64
2022-08-09T05:18:58.309Z,78.64
2022-08-09T05:19:47.888Z,78.47
2022-08-09T05:20:48.019Z,78.20
2022-08-09T05:21:55.739Z,77.99
2022-08-09T05:23:55.492Z,78.06
2022-08-09T05:24:00.973Z,78.28
2022-08-09T05:24:48.492Z,78.19
2022-08-09T05:25:50.875Z,77.66
2022-08-09T05:26:47.923Z,77.19
2022-08-09T05:27:48.173Z,77.22
2022-08-09T05:28:47.957Z,77.12
2022-08-09T05:29:48.096Z,77.06
2022-08-09T05:30:48.267Z,76.96
2022-08-09T05:31:56.443Z,76.65
2022-08-09T05:32:50.770Z,76.46
2022-08-09T05:33:48.595Z,76.20
2022-08-09T05:34:48.732Z,75.85
2022-08-09T05:35:50.798Z,75.35
2022-08-09T05:36:49.113Z,75.30
2022-08-09T05:37:50.302Z,75.16
2022-08-09T05:38:49.186Z,74.78
2022-08-09T05:39:49.324Z,74.69
2022-08-09T05:40:50.570Z,74.05
2022-08-09T05:41:49.584Z,74.06
2022-08-09T05:42:49.625Z,74.04
2022-08-09T05:43:49.775Z,73.56
2022-08-09T05:44:50.932Z,73.52
2022-08-09T05:45:55.825Z,73.44
2022-08-09T05:46:51.166Z,73.12
2022-08-09T05:47:52.503Z,73.22
2022-08-09T05:48:58.857Z,73.49
2022-08-09T05:50:25.685Z,73.16
2022-08-09T05:51:12.014Z,72.81
2022-08-09T05:51:51.753Z,73.03
2022-08-09T05:52:53.409Z,72.20
2022-08-09T05:53:56.665Z,71.09
2022-08-09T05:54:52.173Z,71.37
2022-08-09T05:55:51.281Z,71.31
2022-08-09T05:56:54.662Z,70.75
2022-08-09T05:57:56.420Z,71.23
2022-08-09T05:58:56.132Z,70.95
2022-08-09T05:59:52.800Z,71.09
2022-08-09T06:00:51.940Z,70.69
2022-08-09T06:01:52.062Z,70.14
2022-08-09T06:02:54.071Z,69.90
2022-08-09T06:03:58.538Z,69.89
2022-08-09T06:04:53.400Z,69.47
2022-08-09T06:06:04.739Z,69.74
2022-08-09T06:06:53.619Z,69.07
2022-08-09T06:08:05.348Z,68.63
2022-08-09T06:08:53.969Z,68.54
2022-08-09T06:09:55.030Z,67.78
2022-08-09T06:10:54.130Z,67.71
2022-08-09T06:11:57.356Z,67.78
2022-08-09T06:13:02.784Z,67.98
2022-08-09T06:13:54.568Z,67.35
2022-08-09T06:14:53.661Z,67.59
2022-08-09T06:15:53.781Z,66.19
2022-08-09T06:16:53.918Z,66.81
2022-08-09T06:17:54.029Z,66.29
2022-08-09T06:18:54.308Z,65.90
2022-08-09T06:19:54.247Z,65.92
2022-08-09T06:20:57.325Z,65.40
2022-08-09T06:21:58.412Z,65.68
2022-08-09T06:22:54.601Z,65.70
2022-08-09T06:24:01.161Z,66.28
2022-08-09T06:24:56.017Z,65.30
2022-08-09T06:26:00.208Z,65.53
2022-08-09T06:26:55.125Z,64.60
2022-08-09T06:27:55.266Z,65.27
2022-08-09T06:29:00.944Z,65.04
2022-08-09T06:30:04.483Z,65.11
2022-08-09T06:30:56.614Z,64.96
2022-08-09T06:32:09.056Z,64.78
2022-08-09T06:33:00.365Z,63.49
2022-08-09T06:33:57.188Z,64.33
2022-08-09T06:34:56.048Z,63.92
2022-08-09T06:35:58.252Z,63.15
2022-08-09T06:36:57.224Z,62.56
2022-08-09T06:38:05.869Z,63.50
2022-08-09T06:38:57.701Z,63.46
2022-08-09T06:39:59.730Z,62.91
2022-08-09T06:40:56.825Z,63.47
2022-08-09T06:42:08.868Z,61.75
2022-08-09T06:42:58.049Z,61.66
2022-08-09T06:43:57.223Z,61.58
2022-08-09T06:44:57.549Z,61.49
2022-08-09T06:46:06.337Z,61.77
2022-08-09T06:46:58.541Z,61.85
2022-08-09T06:47:58.002Z,61.18
2022-08-09T06:49:00.192Z,60.89
2022-08-09T06:50:13.449Z,60.63
2022-08-09T06:50:59.128Z,60.37
2022-08-09T06:51:58.153Z,60.96
2022-08-09T06:52:58.294Z,60.62
2022-08-09T06:54:01.024Z,61.39
2022-08-09T06:54:58.608Z,60.47
2022-08-09T06:55:58.636Z,60.34
2022-08-09T06:56:58.746Z,60.56
2022-08-09T06:58:01.524Z,60.02
2022-08-09T07:00:50.759Z,58.02
2022-08-09T07:00:52.111Z,59.76
2022-08-09T07:01:00.490Z,59.63
2022-08-09T07:02:04.555Z,59.77
2022-08-09T07:03:00.473Z,59.10
2022-08-09T07:04:03.695Z,59.16
2022-08-09T07:04:59.829Z,57.67
2022-08-09T07:06:03.625Z,58.08
2022-08-09T07:07:01.020Z,58.28
2022-08-09T07:08:01.930Z,57.01
2022-08-09T07:09:00.262Z,58.11
2022-08-09T07:10:17.917Z,56.35
2022-08-09T07:11:01.622Z,57.42
2022-08-09T07:12:00.713Z,57.85
2022-08-09T07:13:18.717Z,57.17
2022-08-09T07:14:05.516Z,56.64
2022-08-09T07:15:53.121Z,56.26
2022-08-09T07:16:41.285Z,57.02
2022-08-09T07:17:02.362Z,57.18
2022-08-09T07:18:03.097Z,56.36
2022-08-09T07:19:01.483Z,56.42
2022-08-09T07:20:01.652Z,55.87
2022-08-09T07:21:01.863Z,55.44
2022-08-09T07:22:02.036Z,56.39
2022-08-09T07:23:02.020Z,55.93
2022-08-09T07:24:03.144Z,54.92
2022-08-09T07:25:02.261Z,56.64
2022-08-09T07:26:02.986Z,54.82
2022-08-09T07:27:02.581Z,55.83
2022-08-09T07:28:04.240Z,55.78
2022-08-09T07:29:12.203Z,53.93
2022-08-09T07:30:03.939Z,55.97
2022-08-09T07:31:03.051Z,54.53
2022-08-09T07:32:03.164Z,54.59
2022-08-09T07:33:10.358Z,53.44
2022-08-09T07:34:04.583Z,54.18
2022-08-09T07:35:08.218Z,53.92
2022-08-09T07:36:04.709Z,54.12
2022-08-09T07:37:03.833Z,53.41
2022-08-09T07:38:03.952Z,53.72
2022-08-09T07:39:04.092Z,51.73
2022-08-09T07:40:05.333Z,52.63
2022-08-09T07:41:13.154Z,52.14
2022-08-09T07:42:05.441Z,51.27
2022-08-09T07:43:14.832Z,51.68
2022-08-09T07:44:05.690Z,50.75
2022-08-09T07:45:14.951Z,51.46
2022-08-09T07:46:05.983Z,50.52
2022-08-09T07:47:05.120Z,51.20
2022-08-09T07:48:05.441Z,50.48
2022-08-09T07:49:05.299Z,50.27
2022-08-09T07:50:08.571Z,49.05
2022-08-09T07:52:02.701Z,49.46
2022-08-09T07:52:17.024Z,49.92
2022-08-09T07:53:07.050Z,49.50
2022-08-09T07:54:07.376Z,49.24
2022-08-09T07:55:09.113Z,50.56
2022-08-09T07:56:06.744Z,49.31
2022-08-09T07:57:11.747Z,49.79
2022-08-09T07:58:13.201Z,50.16
2022-08-09T07:59:15.784Z,50.12
2022-08-09T08:00:08.954Z,51.30
2022-08-09T08:01:11.086Z,50.65
2022-08-09T08:02:07.343Z,49.97
2022-08-09T08:03:08.419Z,49.81
2022-08-09T08:04:10.573Z,49.60
2022-08-09T08:05:18.884Z,48.17
2022-08-09T08:06:08.498Z,49.66
2022-08-09T08:07:09.302Z,47.96
2022-08-09T08:09:01.720Z,47.81
2022-08-09T08:09:34.417Z,47.83
2022-08-09T08:10:10.757Z,48.69
2022-08-09T08:12:09.917Z,47.61
2022-08-09T08:12:27.440Z,47.55
2022-08-09T08:13:10.278Z,48.10
2022-08-09T08:14:08.890Z,48.17
2022-08-09T08:15:08.593Z,47.63
2022-08-09T08:16:09.331Z,49.17
2022-08-09T08:17:12.099Z,48.67
2022-08-09T08:18:10.088Z,49.51
2022-08-09T08:19:09.063Z,49.70
2022-08-09T08:20:12.884Z,48.16
2022-08-09T08:21:09.270Z,49.37
2022-08-09T08:22:09.406Z,48.48
2022-08-09T08:23:16.703Z,46.28
2022-08-09T08:24:11.518Z,45.67
2022-08-09T08:25:13.516Z,45.73
2022-08-09T08:26:11.509Z,45.95
2022-08-09T08:27:16.491Z,47.89
2022-08-09T08:28:11.106Z,46.78
2022-08-09T08:29:10.196Z,47.32
2022-08-09T08:30:11.042Z,44.85
2022-08-09T08:31:14.867Z,45.01
2022-08-09T08:32:12.399Z,45.38
2022-08-09T08:33:11.912Z,45.08
2022-08-09T08:34:11.816Z,46.21
2022-08-09T08:35:11.025Z,45.06
2022-08-09T08:36:12.344Z,45.26
2022-08-09T08:37:15.645Z,46.63
2022-08-09T08:38:11.896Z,43.92
2022-08-09T08:39:11.500Z,44.03
2022-08-09T08:40:11.578Z,44.18
2022-08-09T08:41:11.767Z,44.13
2022-08-09T08:42:11.961Z,44.52
2022-08-09T08:43:13.738Z,43.84
2022-08-09T08:44:13.713Z,43.35
2022-08-09T08:45:13.832Z,44.00
2022-08-09T08:46:33.654Z,43.79
2022-08-09T08:47:13.556Z,45.50
2022-08-09T08:48:19.348Z,44.77
2022-08-09T08:49:19.162Z,42.91
2022-08-09T08:50:13.815Z,43.65
2022-08-09T08:51:12.954Z,43.53
2022-08-09T08:52:24.409Z,43.40
2022-08-09T08:53:16.118Z,43.92
2022-08-09T08:54:20.522Z,44.87
2022-08-09T08:55:15.274Z,41.61
2022-08-09T08:56:24.944Z,43.09
2022-08-09T08:57:14.663Z,43.55
2022-08-09T08:58:13.943Z,42.75
2022-08-09T08:59:19.088Z,43.87
2022-08-09T09:00:20.975Z,41.43
2022-08-09T09:01:20.784Z,40.97
2022-08-09T09:02:30.664Z,41.70
2022-08-09T09:03:20.813Z,42.63
2022-08-09T09:04:15.573Z,41.83
2022-08-09T09:05:16.522Z,41.94
2022-08-09T09:06:21.013Z,42.11
2022-08-09T09:07:14.955Z,42.39
2022-08-09T09:08:31.124Z,43.73
2022-08-09T09:09:20.985Z,41.27
2022-08-09T09:10:16.337Z,41.76
2022-08-09T09:11:19.262Z,41.48
2022-08-09T09:12:16.635Z,41.61
2022-08-09T09:13:15.755Z,41.62
2022-08-09T09:14:15.918Z,41.06
2022-08-09T09:15:28.607Z,42.07
2022-08-09T09:16:17.003Z,41.78
2022-08-09T09:17:16.481Z,40.79
2022-08-09T09:18:16.421Z,41.56
2022-08-09T09:19:39.356Z,42.65
2022-08-09T09:20:17.512Z,41.63
2022-08-09T09:21:16.680Z,41.39
2022-08-09T09:22:23.831Z,42.24
2022-08-09T09:23:18.061Z,41.84
2022-08-09T09:24:21.833Z,41.04
2022-08-09T09:26:03.411Z,43.06
2022-08-09T09:26:18.470Z,41.25
2022-08-09T09:28:03.145Z,39.99
2022-08-09T09:28:39.106Z,40.30
2022-08-09T09:29:19.035Z,39.91
2022-08-09T09:30:38.260Z,39.86
2022-08-09T09:32:07.103Z,40.60
2022-08-09T09:32:19.175Z,41.37
2022-08-09T09:33:19.282Z,41.26
2022-08-09T09:34:18.838Z,39.80
2022-08-09T09:35:18.448Z,41.16
2022-08-09T09:36:20.343Z,40.27
2022-08-09T09:37:18.712Z,40.42
2022-08-09T09:38:36.465Z,39.89
2022-08-09T09:39:20.138Z,39.64
2022-08-09T09:40:19.097Z,41.46
2022-08-09T09:41:19.207Z,40.24
2022-08-09T09:42:19.326Z,39.12
2022-08-09T09:43:19.567Z,40.55
2022-08-09T09:44:25.870Z,40.52
2022-08-09T09:45:25.785Z,40.12
2022-08-09T09:47:21.304Z,40.00
2022-08-09T09:48:20.077Z,38.55
2022-08-09T09:49:32.060Z,39.54
2022-08-09T09:50:23.204Z,39.48
2022-08-09T09:51:26.105Z,38.37
2022-08-09T09:52:36.450Z,38.37
2022-08-09T09:53:21.675Z,39.90
2022-08-09T09:54:21.865Z,38.03
2022-08-09T09:55:32.340Z,38.53
2022-08-09T09:56:31.397Z,38.49
2022-08-09T09:58:00.499Z,38.60
2022-08-09T09:58:24.449Z,38.08
2022-08-09T09:59:21.475Z,39.49
2022-08-09T10:00:22.056Z,37.52
2022-08-09T10:01:30.993Z,38.44
2022-08-09T10:02:22.825Z,38.25
2022-08-09T10:03:22.287Z,38.87
2022-08-09T10:04:22.918Z,39.12
2022-08-09T10:05:27.191Z,39.20
2022-08-09T10:06:23.312Z,39.25
2022-08-09T10:07:24.020Z,39.28
2022-08-09T10:08:27.429Z,39.02
2022-08-09T10:09:23.993Z,39.89
2022-08-09T10:10:22.833Z,38.49
2022-08-09T10:11:54.016Z,38.19
2022-08-09T10:12:28.567Z,37.83
2022-08-09T10:13:42.788Z,38.28
2022-08-09T10:14:30.810Z,37.97
2022-08-09T10:15:51.149Z,37.73
2022-08-09T10:16:57.864Z,38.28
2022-08-09T10:17:51.489Z,38.47
2022-08-09T10:18:24.781Z,38.31
2022-08-09T10:19:23.903Z,38.86
2022-08-09T10:20:31.804Z,38.53
2022-08-09T10:21:25.131Z,38.26
2022-08-09T10:22:29.576Z,39.90
2022-08-09T10:23:28.175Z,38.37
2022-08-09T10:24:25.567Z,39.36
2022-08-09T10:25:25.768Z,38.48
2022-08-09T10:26:26.809Z,37.55
2022-08-09T10:27:34.699Z,37.22
2022-08-09T10:28:26.055Z,38.71
2022-08-09T10:30:22.147Z,37.55
2022-08-09T10:32:20.920Z,37.04
2022-08-09T10:32:39.977Z,38.60
2022-08-09T10:34:07.934Z,37.64
2022-08-09T10:34:33.582Z,37.45
2022-08-09T10:35:26.939Z,37.56
2022-08-09T10:36:26.137Z,36.75
2022-08-09T10:37:26.119Z,36.91
2022-08-09T10:38:33.787Z,36.59
2022-08-09T10:39:28.701Z,36.65
2022-08-09T10:40:34.765Z,37.66
2022-08-09T10:41:27.953Z,35.30
2022-08-09T10:42:26.900Z,36.14
2022-08-09T10:43:26.857Z,35.93
2022-08-09T10:44:27.956Z,36.12
2022-08-09T10:45:31.836Z,36.43
2022-08-09T10:46:28.337Z,36.16
2022-08-09T10:48:20.439Z,37.60
2022-08-09T10:48:31.041Z,36.29
2022-08-09T10:49:50.922Z,36.61
2022-08-09T10:50:31.395Z,36.89
2022-08-09T10:51:29.797Z,36.39
2022-08-09T10:52:29.063Z,36.52
2022-08-09T10:53:28.074Z,37.12
2022-08-09T10:54:28.212Z,37.74
2022-08-09T10:55:28.365Z,36.77
2022-08-09T10:56:28.525Z,37.11
2022-08-09T10:57:28.642Z,36.42
2022-08-09T10:58:28.861Z,35.81
2022-08-09T10:59:31.071Z,35.15
2022-08-09T11:00:29.006Z,35.94
2022-08-09T11:03:11.956Z,34.90
2022-08-09T11:03:27.339Z,35.59
2022-08-09T11:03:50.120Z,35.82
2022-08-09T11:04:32.536Z,35.39
2022-08-09T11:05:31.087Z,35.31
2022-08-09T11:06:29.760Z,34.98
2022-08-09T11:07:57.832Z,37.37
2022-08-09T11:08:33.240Z,34.59
2022-08-09T11:09:32.520Z,34.88
2022-08-09T11:10:30.208Z,34.50
2022-08-09T11:11:30.358Z,34.82
2022-08-09T11:12:30.597Z,35.21
2022-08-09T11:13:54.133Z,34.27
2022-08-09T11:14:32.247Z,33.86
2022-08-09T11:15:34.164Z,34.49
2022-08-09T11:16:35.730Z,35.70
2022-08-09T11:17:31.308Z,35.69
2022-08-09T11:18:31.447Z,34.96
2022-08-09T11:20:12.109Z,36.42
2022-08-09T11:20:32.556Z,36.19
2022-08-09T11:21:31.683Z,35.09
2022-08-09T11:22:31.807Z,35.62
2022-08-09T11:23:31.981Z,34.40
2022-08-09T11:24:32.005Z,37.01
2022-08-09T11:25:44.834Z,33.97
2022-08-09T11:26:33.306Z,34.91
2022-08-09T11:28:03.942Z,34.11
2022-08-09T11:28:33.801Z,34.81
2022-08-09T11:30:04.512Z,35.24
2022-08-09T11:30:34.664Z,34.41
2022-08-09T11:31:34.221Z,34.34
2022-08-09T11:32:33.329Z,34.41
2022-08-09T11:33:33.163Z,34.81
2022-08-09T11:34:33.378Z,34.55
2022-08-09T11:35:35.177Z,35.42
2022-08-09T11:36:35.919Z,35.44
2022-08-09T11:37:40.807Z,35.57
2022-08-09T11:38:35.108Z,35.14
2022-08-09T11:39:38.602Z,35.90
2022-08-09T11:40:34.062Z,35.99
2022-08-09T11:41:37.692Z,35.87
2022-08-09T11:42:35.291Z,35.73
2022-08-09T11:43:34.391Z,34.55
2022-08-09T11:44:34.561Z,35.15
2022-08-09T11:45:42.560Z,33.94
2022-08-09T11:46:35.803Z,34.26
2022-08-09T11:47:35.228Z,35.16
2022-08-09T11:48:35.914Z,34.55
2022-08-09T11:49:42.827Z,34.83
2022-08-09T11:50:55.533Z,35.28
2022-08-09T11:53:02.417Z,35.51
2022-08-09T11:53:15.906Z,34.73
2022-08-09T11:54:01.274Z,36.14
2022-08-09T11:54:36.771Z,35.38
2022-08-09T11:55:53.569Z,34.12
2022-08-09T11:56:42.761Z,35.17
2022-08-09T11:58:00.662Z,35.17
2022-08-09T11:58:37.254Z,36.16
2022-08-09T11:59:36.357Z,34.91
2022-08-09T12:00:36.548Z,34.65
2022-08-09T12:02:15.894Z,34.88
2022-08-09T12:02:39.670Z,34.40
2022-08-09T12:03:54.896Z,35.97
2022-08-09T12:04:38.298Z,34.82
2022-08-09T12:05:39.566Z,34.56
2022-08-09T12:06:37.257Z,35.37
2022-08-09T12:07:42.305Z,36.36
2022-08-09T12:08:38.567Z,34.61
2022-08-09T12:09:37.606Z,32.96
2022-08-09T12:10:39.850Z,33.44
2022-08-09T12:12:02.407Z,34.81
2022-08-09T12:12:39.154Z,33.31
2022-08-09T12:14:10.790Z,33.38
2022-08-09T12:14:58.977Z,32.79
2022-08-09T12:15:50.404Z,32.48
2022-08-09T12:16:39.938Z,34.25
2022-08-09T12:17:43.567Z,34.58
2022-08-09T12:18:39.716Z,35.40
2022-08-09T12:19:40.059Z,35.62
2022-08-09T12:20:38.954Z,34.82
2022-08-09T12:21:48.810Z,32.03
2022-08-09T12:22:40.204Z,33.23
2022-08-09T12:23:56.568Z,33.46
2022-08-09T12:24:40.574Z,33.65
2022-08-09T12:25:49.482Z,33.71
2022-08-09T12:26:40.673Z,33.92
2022-08-09T12:29:13.892Z,33.21
2022-08-09T12:29:14.710Z,33.48
2022-08-09T12:29:52.694Z,33.28
2022-08-09T12:30:41.234Z,32.14
2022-08-09T12:31:58.875Z,32.71
2022-08-09T12:32:41.451Z,32.87
2022-08-09T12:33:59.462Z,31.48
2022-08-09T12:34:41.783Z,31.72
2022-08-09T12:35:42.843Z,32.45
2022-08-09T12:36:40.912Z,33.22
2022-08-09T12:37:50.741Z,32.98
2022-08-09T12:38:42.162Z,31.49
2022-08-09T12:39:41.319Z,31.57
2022-08-09T12:40:41.421Z,33.74
2022-08-09T12:41:41.510Z,32.91
2022-08-09T12:42:41.673Z,33.14
2022-08-09T12:44:07.093Z,32.35
2022-08-09T12:44:42.881Z,32.18
2022-08-09T12:45:43.153Z,32.98
2022-08-09T12:46:43.123Z,32.26
2022-08-09T12:47:50.116Z,33.17
2022-08-09T12:48:43.370Z,32.80
2022-08-09T12:49:50.931Z,32.78
2022-08-09T12:50:43.771Z,31.59
2022-08-09T12:52:01.540Z,31.53
2022-08-09T12:53:08.218Z,32.28
2022-08-09T12:53:44.881Z,32.60
2022-08-09T12:54:44.150Z,32.84
2022-08-09T12:56:14.498Z,32.74